L'viv, Ukraine
Current Conditions -  °F | °C
As of 11:30 AM on Saturday 29 Nov 2014 (Local Time) from UKLL Reporting Station
Clear Clear  
Wind Chill: 12°   Ceiling: Unl
Heat Index: 23°   Visibility: 4mi
Dew Point: 18°   Wind: 11mph
Humidity: 80%   Direction: 70°ENE
Pressure: 30.33"   Gusts: NA
Location:  49.84°N, 24.03°E
Report Text: UKLL 290830Z 07005MPS 7000 SKC M05/M08 Q1027 13CLRD80 NOSIG
Loading
Personal Weather Stations






























Interactive Weather Map New forecast layout! Learn more

10-Day Weather Forecast

Advertisements
Track Severe Weather on mobile